sensor_id;sensor_type;location;lat;lon;timestamp;pressure;altitude;pressure_sealevel;temperature;humidity
61119;BME280;51448;51.660;5.824;2023-06-04T00:00:35;102068.22;;;13.78;54.76
61119;BME280;51448;51.660;5.824;2023-06-04T00:03:23;102062.19;;;13.73;55.11
61119;BME280;51448;51.660;5.824;2023-06-04T00:06:11;102064.03;;;13.67;54.80
61119;BME280;51448;51.660;5.824;2023-06-04T00:08:59;102060.63;;;13.62;55.22
61119;BME280;51448;51.660;5.824;2023-06-04T00:11:47;102063.38;;;13.58;55.62
61119;BME280;51448;51.660;5.824;2023-06-04T00:14:35;102069.56;;;13.55;56.71
61119;BME280;51448;51.660;5.824;2023-06-04T00:17:23;102059.09;;;13.52;56.97
61119;BME280;51448;51.660;5.824;2023-06-04T00:20:11;102053.84;;;13.49;56.87
61119;BME280;51448;51.660;5.824;2023-06-04T00:22:59;102055.66;;;13.47;57.61
61119;BME280;51448;51.660;5.824;2023-06-04T00:25:47;102060.16;;;13.43;58.26
61119;BME280;51448;51.660;5.824;2023-06-04T00:28:34;102055.78;;;13.41;57.71
61119;BME280;51448;51.660;5.824;2023-06-04T00:31:22;102055.88;;;13.36;57.51
61119;BME280;51448;51.660;5.824;2023-06-04T00:34:11;102060.34;;;13.33;58.00
61119;BME280;51448;51.660;5.824;2023-06-04T00:36:59;102055.13;;;13.30;57.94
61119;BME280;51448;51.660;5.824;2023-06-04T00:39:49;102050.78;;;13.25;58.43
61119;BME280;51448;51.660;5.824;2023-06-04T00:42:37;102053.47;;;13.22;58.80
61119;BME280;51448;51.660;5.824;2023-06-04T00:45:25;102047.34;;;13.20;59.74
61119;BME280;51448;51.660;5.824;2023-06-04T00:48:13;102051.84;;;13.17;59.74
61119;BME280;51448;51.660;5.824;2023-06-04T00:51:01;102045.66;;;13.16;60.19
61119;BME280;51448;51.660;5.824;2023-06-04T00:53:49;102049.25;;;13.12;59.89
61119;BME280;51448;51.660;5.824;2023-06-04T00:56:38;102048.44;;;13.10;60.33
61119;BME280;51448;51.660;5.824;2023-06-04T00:59:26;102052.00;;;13.07;60.25
61119;BME280;51448;51.660;5.824;2023-06-04T01:02:19;102054.72;;;13.04;60.46
61119;BME280;51448;51.660;5.824;2023-06-04T01:05:51;102050.34;;;13.02;60.36
61119;BME280;51448;51.660;5.824;2023-06-04T01:08:49;102055.72;;;12.97;60.50
61119;BME280;51448;51.660;5.824;2023-06-04T01:11:41;102057.53;;;12.94;60.44
61119;BME280;51448;51.660;5.824;2023-06-04T01:14:29;102053.19;;;12.91;60.59
61119;BME280;51448;51.660;5.824;2023-06-04T01:17:22;102054.97;;;12.91;61.08
61119;BME280;51448;51.660;5.824;2023-06-04T01:23:46;102053.41;;;12.80;61.35
61119;BME280;51448;51.660;5.824;2023-06-04T01:26:46;102049.09;;;12.75;61.47
61119;BME280;51448;51.660;5.824;2023-06-04T01:29:36;102058.78;;;12.74;61.82
61119;BME280;51448;51.660;5.824;2023-06-04T01:32:24;102057.94;;;12.72;61.34
61119;BME280;51448;51.660;5.824;2023-06-04T01:35:13;102060.63;;;12.69;61.31
61119;BME280;51448;51.660;5.824;2023-06-04T01:38:01;102060.69;;;12.64;61.59
61119;BME280;51448;51.660;5.824;2023-06-04T01:40:49;102059.84;;;12.64;63.52
61119;BME280;51448;51.660;5.824;2023-06-04T01:43:38;102057.31;;;12.58;63.39
61119;BME280;51448;51.660;5.824;2023-06-04T01:46:26;102059.13;;;12.53;62.87
61119;BME280;51448;51.660;5.824;2023-06-04T01:49:14;102053.91;;;12.50;62.99
61119;BME280;51448;51.660;5.824;2023-06-04T01:52:01;102055.75;;;12.44;63.03
61119;BME280;51448;51.660;5.824;2023-06-04T01:54:49;102051.38;;;12.43;64.28
61119;BME280;51448;51.660;5.824;2023-06-04T01:57:41;102055.84;;;12.38;63.93
61119;BME280;51448;51.660;5.824;2023-06-04T02:00:31;102055.91;;;12.35;64.37
61119;BME280;51448;51.660;5.824;2023-06-04T02:03:19;102057.69;;;12.33;64.67
61119;BME280;51448;51.660;5.824;2023-06-04T02:06:08;102054.25;;;12.30;64.55
61119;BME280;51448;51.660;5.824;2023-06-04T02:08:56;102059.59;;;12.25;64.16
61119;BME280;51448;51.660;5.824;2023-06-04T02:11:44;102054.41;;;12.19;64.84
61119;BME280;51448;51.660;5.824;2023-06-04T02:14:32;102058.00;;;12.15;65.47
61119;BME280;51448;51.660;5.824;2023-06-04T02:17:20;102059.84;;;12.08;65.69
61119;BME280;51448;51.660;5.824;2023-06-04T02:20:08;102062.53;;;12.03;65.64
61119;BME280;51448;51.660;5.824;2023-06-04T02:22:57;102050.34;;;11.98;66.14
61119;BME280;51448;51.660;5.824;2023-06-04T02:25:46;102053.91;;;11.94;66.24
61119;BME280;51448;51.660;5.824;2023-06-04T02:28:35;102048.66;;;11.91;66.61
61119;BME280;51448;51.660;5.824;2023-06-04T02:31:24;102048.69;;;11.89;66.46
61119;BME280;51448;51.660;5.824;2023-06-04T02:34:12;102052.19;;;11.86;66.20
61119;BME280;51448;51.660;5.824;2023-06-04T02:37:00;102052.25;;;11.83;66.20
61119;BME280;51448;51.660;5.824;2023-06-04T02:39:48;102042.66;;;11.78;66.51
61119;BME280;51448;51.660;5.824;2023-06-04T02:42:36;102048.88;;;11.75;66.53
61119;BME280;51448;51.660;5.824;2023-06-04T02:45:25;102052.44;;;11.68;66.41
61119;BME280;51448;51.660;5.824;2023-06-04T02:48:13;102056.03;;;11.62;66.85
61119;BME280;51448;51.660;5.824;2023-06-04T02:51:00;102054.31;;;11.60;67.40
61119;BME280;51448;51.660;5.824;2023-06-04T02:53:49;102048.19;;;11.58;67.19
61119;BME280;51448;51.660;5.824;2023-06-04T02:56:36;102049.09;;;11.57;66.88
61119;BME280;51448;51.660;5.824;2023-06-04T02:59:25;102054.41;;;11.54;66.68
61119;BME280;51448;51.660;5.824;2023-06-04T03:02:13;102050.91;;;11.50;66.75
61119;BME280;51448;51.660;5.824;2023-06-04T03:05:03;102060.59;;;11.48;67.42
61119;BME280;51448;51.660;5.824;2023-06-04T03:07:51;102061.53;;;11.44;67.00
61119;BME280;51448;51.660;5.824;2023-06-04T03:10:39;102065.94;;;11.42;66.94
61119;BME280;51448;51.660;5.824;2023-06-04T03:13:27;102058.94;;;11.41;67.42
61119;BME280;51448;51.660;5.824;2023-06-04T03:16:15;102059.81;;;11.40;67.48
61119;BME280;51448;51.660;5.824;2023-06-04T03:19:03;102061.59;;;11.38;68.15
61119;BME280;51448;51.660;5.824;2023-06-04T03:21:51;102061.66;;;11.36;67.98
61119;BME280;51448;51.660;5.824;2023-06-04T03:24:41;102059.03;;;11.35;67.85
61119;BME280;51448;51.660;5.824;2023-06-04T03:27:31;102058.16;;;11.34;68.09
61119;BME280;51448;51.660;5.824;2023-06-04T03:30:20;102059.91;;;11.34;67.30
61119;BME280;51448;51.660;5.824;2023-06-04T03:33:20;102063.44;;;11.33;67.70
61119;BME280;51448;51.660;5.824;2023-06-04T03:36:08;102058.16;;;11.33;67.83
61119;BME280;51448;51.660;5.824;2023-06-04T03:38:56;102058.19;;;11.31;67.68
61119;BME280;51448;51.660;5.824;2023-06-04T03:41:43;102054.69;;;11.29;67.76
61119;BME280;51448;51.660;5.824;2023-06-04T03:44:31;102053.81;;;11.28;67.46
61119;BME280;51448;51.660;5.824;2023-06-04T03:47:20;102054.75;;;11.26;67.64
61119;BME280;51448;51.660;5.824;2023-06-04T03:50:08;102061.75;;;11.25;67.42
61119;BME280;51448;51.660;5.824;2023-06-04T03:52:57;102065.28;;;11.24;67.67
61119;BME280;51448;51.660;5.824;2023-06-04T03:55:45;102058.31;;;11.22;67.65
61119;BME280;51448;51.660;5.824;2023-06-04T03:58:35;102059.16;;;11.22;68.06
61119;BME280;51448;51.660;5.824;2023-06-04T04:01:24;102058.25;;;11.23;67.59
61119;BME280;51448;51.660;5.824;2023-06-04T04:04:12;102063.56;;;11.22;67.98
61119;BME280;51448;51.660;5.824;2023-06-04T04:07:00;102062.66;;;11.21;67.90
61119;BME280;51448;51.660;5.824;2023-06-04T04:09:48;102066.22;;;11.20;68.04
61119;BME280;51448;51.660;5.824;2023-06-04T04:12:36;102059.19;;;11.21;68.37
61119;BME280;51448;51.660;5.824;2023-06-04T04:15:24;102067.06;;;11.22;68.24
61119;BME280;51448;51.660;5.824;2023-06-04T04:18:13;102068.78;;;11.25;68.31
61119;BME280;51448;51.660;5.824;2023-06-04T04:21:02;102065.28;;;11.26;68.52
61119;BME280;51448;51.660;5.824;2023-06-04T04:23:52;102063.50;;;11.26;68.40
61119;BME280;51448;51.660;5.824;2023-06-04T04:26:40;102060.88;;;11.28;68.70
61119;BME280;51448;51.660;5.824;2023-06-04T04:29:31;102061.72;;;11.28;69.15
61119;BME280;51448;51.660;5.824;2023-06-04T04:32:23;102059.94;;;11.31;69.12
61119;BME280;51448;51.660;5.824;2023-06-04T04:35:10;102065.22;;;11.32;68.83
61119;BME280;51448;51.660;5.824;2023-06-04T04:38:00;102063.38;;;11.37;69.97
61119;BME280;51448;51.660;5.824;2023-06-04T04:40:55;102069.50;;;11.41;70.41
61119;BME280;51448;51.660;5.824;2023-06-04T04:43:46;102066.72;;;11.50;69.88
61119;BME280;51448;51.660;5.824;2023-06-04T04:46:40;102067.34;;;11.72;69.66
61119;BME280;51448;51.660;5.824;2023-06-04T04:49:28;102072.19;;;12.04;69.64
61119;BME280;51448;51.660;5.824;2023-06-04T04:52:16;102076.09;;;12.36;69.56
61119;BME280;51448;51.660;5.824;2023-06-04T04:55:05;102075.59;;;12.67;69.47
61119;BME280;51448;51.660;5.824;2023-06-04T04:57:54;102076.81;;;13.00;68.87
61119;BME280;51448;51.660;5.824;2023-06-04T05:00:43;102065.78;;;13.25;67.90
61119;BME280;51448;51.660;5.824;2023-06-04T05:03:31;102075.94;;;13.45;66.84
61119;BME280;51448;51.660;5.824;2023-06-04T05:06:19;102073.19;;;13.51;65.83
61119;BME280;51448;51.660;5.824;2023-06-04T05:09:08;102074.09;;;13.52;66.25
61119;BME280;51448;51.660;5.824;2023-06-04T05:11:57;102075.94;;;13.46;65.87
61119;BME280;51448;51.660;5.824;2023-06-04T05:14:45;102078.72;;;13.39;65.89
61119;BME280;51448;51.660;5.824;2023-06-04T05:17:34;102084.94;;;13.36;66.39
61119;BME280;51448;51.660;5.824;2023-06-04T05:20:28;102080.50;;;13.38;66.84
61119;BME280;51448;51.660;5.824;2023-06-04T05:23:17;102083.88;;;13.45;66.96
61119;BME280;51448;51.660;5.824;2023-06-04T05:26:08;102075.88;;;13.50;66.64
61119;BME280;51448;51.660;5.824;2023-06-04T05:28:56;102080.13;;;13.57;66.49
61119;BME280;51448;51.660;5.824;2023-06-04T05:31:48;102087.88;;;13.66;66.66
61119;BME280;51448;51.660;5.824;2023-06-04T05:34:39;102078.88;;;13.75;66.36
61119;BME280;51448;51.660;5.824;2023-06-04T05:37:28;102087.63;;;13.78;66.12
61119;BME280;51448;51.660;5.824;2023-06-04T05:40:17;102085.88;;;13.77;66.14
61119;BME280;51448;51.660;5.824;2023-06-04T05:43:05;102081.38;;;13.81;66.02
61119;BME280;51448;51.660;5.824;2023-06-04T05:45:55;102074.16;;;13.89;65.57
61119;BME280;51448;51.660;5.824;2023-06-04T05:48:43;102081.97;;;13.95;65.24
61119;BME280;51448;51.660;5.824;2023-06-04T05:51:32;102084.34;;;14.06;65.40
61119;BME280;51448;51.660;5.824;2023-06-04T05:54:20;102085.03;;;14.16;65.39
61119;BME280;51448;51.660;5.824;2023-06-04T05:57:09;102083.88;;;14.27;65.17
61119;BME280;51448;51.660;5.824;2023-06-04T05:59:57;102085.41;;;14.36;64.76
61119;BME280;51448;51.660;5.824;2023-06-04T06:02:45;102085.97;;;14.51;64.49
61119;BME280;51448;51.660;5.824;2023-06-04T06:05:49;102078.53;;;14.66;64.17
61119;BME280;51448;51.660;5.824;2023-06-04T06:08:37;102077.41;;;14.77;63.35
61119;BME280;51448;51.660;5.824;2023-06-04T06:11:25;102081.47;;;14.88;63.63
61119;BME280;51448;51.660;5.824;2023-06-04T06:14:15;102091.72;;;15.02;63.19
61119;BME280;51448;51.660;5.824;2023-06-04T06:17:03;102088.72;;;15.16;63.03
61119;BME280;51448;51.660;5.824;2023-06-04T06:19:52;102082.97;;;15.32;62.44
61119;BME280;51448;51.660;5.824;2023-06-04T06:22:40;102092.16;;;15.51;61.35
61119;BME280;51448;51.660;5.824;2023-06-04T06:25:28;102089.16;;;15.63;61.04
61119;BME280;51448;51.660;5.824;2023-06-04T06:28:23;102092.38;;;15.75;60.26
61119;BME280;51448;51.660;5.824;2023-06-04T06:31:12;102092.97;;;15.84;60.02
61119;BME280;51448;51.660;5.824;2023-06-04T06:34:00;102091.69;;;15.98;60.17
61119;BME280;51448;51.660;5.824;2023-06-04T06:36:48;102093.81;;;16.15;59.43
61119;BME280;51448;51.660;5.824;2023-06-04T06:39:37;102104.00;;;16.28;58.71
61119;BME280;51448;51.660;5.824;2023-06-04T06:42:25;102101.88;;;16.40;58.35
61119;BME280;51448;51.660;5.824;2023-06-04T06:45:14;102105.72;;;16.58;58.23
61119;BME280;51448;51.660;5.824;2023-06-04T06:48:03;102109.41;;;16.80;58.13
61119;BME280;51448;51.660;5.824;2023-06-04T06:50:51;102102.44;;;17.03;57.84
61119;BME280;51448;51.660;5.824;2023-06-04T06:53:41;102113.06;;;17.28;56.82
61119;BME280;51448;51.660;5.824;2023-06-04T06:56:29;102107.13;;;17.45;56.45
61119;BME280;51448;51.660;5.824;2023-06-04T06:59:17;102112.59;;;17.65;55.51
61119;BME280;51448;51.660;5.824;2023-06-04T07:02:06;102115.59;;;17.80;55.66
61119;BME280;51448;51.660;5.824;2023-06-04T07:04:54;102115.09;;;17.94;54.54
61119;BME280;51448;51.660;5.824;2023-06-04T07:07:42;102115.44;;;18.08;54.30
61119;BME280;51448;51.660;5.824;2023-06-04T07:10:30;102116.47;;;18.27;54.65
61119;BME280;51448;51.660;5.824;2023-06-04T07:13:18;102119.09;;;18.49;54.55
61119;BME280;51448;51.660;5.824;2023-06-04T07:16:07;102112.91;;;18.71;54.03
61119;BME280;51448;51.660;5.824;2023-06-04T07:18:55;102118.41;;;18.88;51.69
61119;BME280;51448;51.660;5.824;2023-06-04T07:21:43;102116.25;;;18.97;51.71
61119;BME280;51448;51.660;5.824;2023-06-04T07:24:31;102127.13;;;19.13;50.51
61119;BME280;51448;51.660;5.824;2023-06-04T07:27:19;102118.06;;;19.17;48.87
61119;BME280;51448;51.660;5.824;2023-06-04T07:30:07;102122.75;;;19.12;49.94
61119;BME280;51448;51.660;5.824;2023-06-04T07:32:56;102127.88;;;19.16;49.16
61119;BME280;51448;51.660;5.824;2023-06-04T07:35:45;102123.09;;;19.24;49.03
61119;BME280;51448;51.660;5.824;2023-06-04T07:38:32;102115.28;;;19.40;48.90
61119;BME280;51448;51.660;5.824;2023-06-04T07:41:20;102110.75;;;19.61;49.42
61119;BME280;51448;51.660;5.824;2023-06-04T07:44:09;102110.16;;;19.75;47.49
61119;BME280;51448;51.660;5.824;2023-06-04T07:46:56;102118.28;;;19.72;48.00
61119;BME280;51448;51.660;5.824;2023-06-04T07:49:43;102115.28;;;19.80;48.43
61119;BME280;51448;51.660;5.824;2023-06-04T07:52:51;102114.63;;;19.94;48.41
61119;BME280;51448;51.660;5.824;2023-06-04T07:55:39;102116.56;;;20.09;48.43
61119;BME280;51448;51.660;5.824;2023-06-04T07:58:27;102119.19;;;20.28;46.76
61119;BME280;51448;51.660;5.824;2023-06-04T08:01:15;102122.97;;;20.43;46.57
61119;BME280;51448;51.660;5.824;2023-06-04T08:04:03;102116.28;;;20.52;46.38
61119;BME280;51448;51.660;5.824;2023-06-04T08:06:51;102115.84;;;20.61;45.70
61119;BME280;51448;51.660;5.824;2023-06-04T08:09:39;102125.31;;;20.68;45.40
61119;BME280;51448;51.660;5.824;2023-06-04T08:12:27;102122.16;;;20.77;45.60
61119;BME280;51448;51.660;5.824;2023-06-04T08:15:15;102113.50;;;20.89;45.70
61119;BME280;51448;51.660;5.824;2023-06-04T08:18:03;102112.47;;;21.09;45.90
61119;BME280;51448;51.660;5.824;2023-06-04T08:20:51;102107.91;;;21.29;44.93
61119;BME280;51448;51.660;5.824;2023-06-04T08:23:38;102120.47;;;21.44;43.73
61119;BME280;51448;51.660;5.824;2023-06-04T08:26:26;102113.53;;;21.58;44.18
61119;BME280;51448;51.660;5.824;2023-06-04T08:29:14;102115.88;;;21.64;42.66
61119;BME280;51448;51.660;5.824;2023-06-04T08:32:02;102122.53;;;21.73;42.59
61119;BME280;51448;51.660;5.824;2023-06-04T08:34:51;102124.69;;;21.82;41.06
61119;BME280;51448;51.660;5.824;2023-06-04T08:37:39;102126.03;;;21.90;39.84
61119;BME280;51448;51.660;5.824;2023-06-04T08:40:27;102122.31;;;21.93;40.94
61119;BME280;51448;51.660;5.824;2023-06-04T08:43:15;102123.66;;;22.00;40.98
61119;BME280;51448;51.660;5.824;2023-06-04T08:46:05;102123.88;;;22.13;41.18
61119;BME280;51448;51.660;5.824;2023-06-04T08:48:59;102122.25;;;22.26;40.98
61119;BME280;51448;51.660;5.824;2023-06-04T08:51:50;102126.91;;;22.39;40.88
61119;BME280;51448;51.660;5.824;2023-06-04T08:54:38;102128.09;;;22.49;40.88
61119;BME280;51448;51.660;5.824;2023-06-04T08:57:26;102128.44;;;22.59;38.50
61119;BME280;51448;51.660;5.824;2023-06-04T09:00:18;102131.03;;;22.60;38.20
61119;BME280;51448;51.660;5.824;2023-06-04T09:03:07;102141.28;;;22.68;37.73
61119;BME280;51448;51.660;5.824;2023-06-04T09:05:56;102138.34;;;22.73;36.72
61119;BME280;51448;51.660;5.824;2023-06-04T09:08:45;102134.41;;;22.78;36.52
61119;BME280;51448;51.660;5.824;2023-06-04T09:11:55;102129.06;;;22.78;36.09
61119;BME280;51448;51.660;5.824;2023-06-04T09:14:44;102133.66;;;22.76;37.16
61119;BME280;51448;51.660;5.824;2023-06-04T09:17:32;102125.06;;;22.85;37.29
61119;BME280;51448;51.660;5.824;2023-06-04T09:20:24;102131.91;;;22.91;37.45
61119;BME280;51448;51.660;5.824;2023-06-04T09:23:13;102134.00;;;23.00;37.29
61119;BME280;51448;51.660;5.824;2023-06-04T09:26:08;102128.31;;;23.06;36.95
61119;BME280;51448;51.660;5.824;2023-06-04T09:28:57;102128.63;;;23.16;36.31
61119;BME280;51448;51.660;5.824;2023-06-04T09:31:46;102131.78;;;23.23;35.24
61119;BME280;51448;51.660;5.824;2023-06-04T09:34:35;102128.72;;;23.29;35.36
61119;BME280;51448;51.660;5.824;2023-06-04T09:37:23;102129.41;;;23.33;35.68
61119;BME280;51448;51.660;5.824;2023-06-04T09:40:12;102125.38;;;23.40;36.17
61119;BME280;51448;51.660;5.824;2023-06-04T09:43:00;102118.59;;;23.48;35.81
61119;BME280;51448;51.660;5.824;2023-06-04T09:45:48;102118.78;;;23.60;35.86
61119;BME280;51448;51.660;5.824;2023-06-04T09:48:36;102119.06;;;23.69;34.94
61119;BME280;51448;51.660;5.824;2023-06-04T09:51:24;102118.75;;;23.74;33.71
61119;BME280;51448;51.660;5.824;2023-06-04T09:54:12;102125.00;;;23.75;33.28
61119;BME280;51448;51.660;5.824;2023-06-04T09:57:00;102124.72;;;23.65;30.40
61119;BME280;51448;51.660;5.824;2023-06-04T09:59:52;102116.94;;;23.60;30.79
61119;BME280;51448;51.660;5.824;2023-06-04T10:02:43;102112.34;;;23.62;31.13
61119;BME280;51448;51.660;5.824;2023-06-04T10:05:33;102119.25;;;23.66;30.69
61119;BME280;51448;51.660;5.824;2023-06-04T10:08:22;102117.44;;;23.67;31.11
61119;BME280;51448;51.660;5.824;2023-06-04T10:11:13;102117.06;;;23.73;30.28
61119;BME280;51448;51.660;5.824;2023-06-04T10:14:31;102114.88;;;23.80;30.26
61119;BME280;51448;51.660;5.824;2023-06-04T10:17:27;102127.69;;;23.89;30.24
61119;BME280;51448;51.660;5.824;2023-06-04T10:20:16;102121.06;;;23.95;30.54
61119;BME280;51448;51.660;5.824;2023-06-04T10:23:06;102117.91;;;24.02;31.21
61119;BME280;51448;51.660;5.824;2023-06-04T10:25:55;102117.63;;;24.20;29.64
61119;BME280;51448;51.660;5.824;2023-06-04T10:28:44;102107.00;;;24.18;28.76
61119;BME280;51448;51.660;5.824;2023-06-04T10:31:32;102102.31;;;24.07;29.93
61119;BME280;51448;51.660;5.824;2023-06-04T10:34:20;102111.72;;;24.15;30.47
61119;BME280;51448;51.660;5.824;2023-06-04T10:37:23;102102.03;;;24.12;29.73
61119;BME280;51448;51.660;5.824;2023-06-04T10:40:12;102116.78;;;24.19;30.07
61119;BME280;51448;51.660;5.824;2023-06-04T10:46:13;102121.00;;;24.23;29.51
61119;BME280;51448;51.660;5.824;2023-06-04T10:49:02;102117.59;;;24.34;30.32
61119;BME280;51448;51.660;5.824;2023-06-04T10:51:50;102117.00;;;24.43;29.79
61119;BME280;51448;51.660;5.824;2023-06-04T10:54:38;102120.44;;;24.45;30.13
61119;BME280;51448;51.660;5.824;2023-06-04T10:57:26;102107.75;;;24.47;29.83
61119;BME280;51448;51.660;5.824;2023-06-04T11:00:14;102106.34;;;24.42;29.51
61119;BME280;51448;51.660;5.824;2023-06-04T11:03:10;102114.31;;;24.43;30.19
61119;BME280;51448;51.660;5.824;2023-06-04T11:05:59;102118.34;;;24.50;30.73
61119;BME280;51448;51.660;5.824;2023-06-04T11:08:48;102121.69;;;24.54;30.35
61119;BME280;51448;51.660;5.824;2023-06-04T11:11:36;102110.84;;;24.56;30.13
61119;BME280;51448;51.660;5.824;2023-06-04T11:14:24;102116.66;;;24.62;30.33
61119;BME280;51448;51.660;5.824;2023-06-04T11:17:13;102115.16;;;24.71;30.44
61119;BME280;51448;51.660;5.824;2023-06-04T11:20:02;102108.31;;;24.80;30.46
61119;BME280;51448;51.660;5.824;2023-06-04T11:22:58;102103.47;;;24.85;30.09
61119;BME280;51448;51.660;5.824;2023-06-04T11:25:52;102101.00;;;24.82;30.40
61119;BME280;51448;51.660;5.824;2023-06-04T11:28:40;102100.03;;;24.83;30.61
61119;BME280;51448;51.660;5.824;2023-06-04T11:31:41;102099.50;;;24.90;30.58
61119;BME280;51448;51.660;5.824;2023-06-04T11:34:40;102090.66;;;24.88;29.87
61119;BME280;51448;51.660;5.824;2023-06-04T11:37:57;102095.06;;;24.89;29.96
61119;BME280;51448;51.660;5.824;2023-06-04T11:41:02;102086.56;;;24.96;29.78
61119;BME280;51448;51.660;5.824;2023-06-04T11:43:52;102099.06;;;24.97;29.37
61119;BME280;51448;51.660;5.824;2023-06-04T11:46:44;102090.44;;;24.92;29.73
61119;BME280;51448;51.660;5.824;2023-06-04T11:49:34;102095.53;;;24.96;29.91
61119;BME280;51448;51.660;5.824;2023-06-04T11:52:23;102078.81;;;25.04;29.08
61119;BME280;51448;51.660;5.824;2023-06-04T11:55:11;102079.25;;;24.98;29.98
61119;BME280;51448;51.660;5.824;2023-06-04T11:58:00;102065.28;;;25.05;29.46
61119;BME280;51448;51.660;5.824;2023-06-04T12:00:49;102072.59;;;25.16;30.08
61119;BME280;51448;51.660;5.824;2023-06-04T12:03:39;102073.59;;;25.28;29.99
61119;BME280;51448;51.660;5.824;2023-06-04T12:06:28;102074.31;;;25.43;29.53
61119;BME280;51448;51.660;5.824;2023-06-04T12:09:21;102075.72;;;25.48;29.39
61119;BME280;51448;51.660;5.824;2023-06-04T12:12:09;102073.69;;;25.52;29.74
61119;BME280;51448;51.660;5.824;2023-06-04T12:14:58;102082.81;;;25.62;29.87
61119;BME280;51448;51.660;5.824;2023-06-04T12:17:53;102075.78;;;25.73;29.80
61119;BME280;51448;51.660;5.824;2023-06-04T12:20:42;102079.63;;;25.81;30.22
61119;BME280;51448;51.660;5.824;2023-06-04T12:23:30;102068.22;;;25.91;29.78
61119;BME280;51448;51.660;5.824;2023-06-04T12:26:22;102067.13;;;25.93;29.74
61119;BME280;51448;51.660;5.824;2023-06-04T12:29:17;102068.09;;;25.92;30.03
61119;BME280;51448;51.660;5.824;2023-06-04T12:32:08;102073.38;;;25.94;29.58
61119;BME280;51448;51.660;5.824;2023-06-04T12:35:00;102066.28;;;25.93;29.31
61119;BME280;51448;51.660;5.824;2023-06-04T12:37:48;102073.47;;;25.92;29.38
61119;BME280;51448;51.660;5.824;2023-06-04T12:40:36;102061.19;;;26.01;29.30
61119;BME280;51448;51.660;5.824;2023-06-04T12:43:24;102063.06;;;26.12;29.88
61119;BME280;51448;51.660;5.824;2023-06-04T12:46:13;102063.63;;;26.28;29.31
61119;BME280;51448;51.660;5.824;2023-06-04T12:49:01;102060.22;;;26.37;29.27
61119;BME280;51448;51.660;5.824;2023-06-04T12:51:49;102061.22;;;26.36;29.15
61119;BME280;51448;51.660;5.824;2023-06-04T12:54:37;102056.41;;;26.28;28.23
61119;BME280;51448;51.660;5.824;2023-06-04T12:57:25;102059.34;;;26.25;28.29
61119;BME280;51448;51.660;5.824;2023-06-04T13:00:13;102059.75;;;26.32;28.10
61119;BME280;51448;51.660;5.824;2023-06-04T13:03:02;102059.50;;;26.35;27.80
61119;BME280;51448;51.660;5.824;2023-06-04T13:05:50;102051.94;;;26.40;27.87
61119;BME280;51448;51.660;5.824;2023-06-04T13:08:39;102049.22;;;26.40;27.54
61119;BME280;51448;51.660;5.824;2023-06-04T13:11:27;102057.78;;;26.34;27.96
61119;BME280;51448;51.660;5.824;2023-06-04T13:14:15;102061.59;;;26.32;28.20
61119;BME280;51448;51.660;5.824;2023-06-04T13:17:03;102058.53;;;26.36;27.11
61119;BME280;51448;51.660;5.824;2023-06-04T13:20:09;102054.97;;;26.36;27.61
61119;BME280;51448;51.660;5.824;2023-06-04T13:22:57;102055.59;;;26.39;28.31
61119;BME280;51448;51.660;5.824;2023-06-04T13:25:45;102054.03;;;26.48;28.02
61119;BME280;51448;51.660;5.824;2023-06-04T13:28:33;102055.84;;;26.47;27.53
61119;BME280;51448;51.660;5.824;2023-06-04T13:31:21;102050.81;;;26.43;27.46
61119;BME280;51448;51.660;5.824;2023-06-04T13:34:08;102045.94;;;26.48;28.36
61119;BME280;51448;51.660;5.824;2023-06-04T13:37:14;102044.91;;;26.62;27.91
61119;BME280;51448;51.660;5.824;2023-06-04T13:40:02;102042.34;;;26.72;28.11
61119;BME280;51448;51.660;5.824;2023-06-04T13:42:50;102043.50;;;26.92;27.64
61119;BME280;51448;51.660;5.824;2023-06-04T13:45:39;102045.59;;;26.99;27.40
61119;BME280;51448;51.660;5.824;2023-06-04T13:48:27;102040.06;;;27.01;27.85
61119;BME280;51448;51.660;5.824;2023-06-04T13:51:15;102043.75;;;27.11;27.71
61119;BME280;51448;51.660;5.824;2023-06-04T13:54:03;102027.06;;;27.17;27.30
61119;BME280;51448;51.660;5.824;2023-06-04T13:56:51;102034.81;;;27.22;27.35
61119;BME280;51448;51.660;5.824;2023-06-04T13:59:39;102032.34;;;27.19;27.17
61119;BME280;51448;51.660;5.824;2023-06-04T14:02:27;102039.09;;;27.13;27.07
61119;BME280;51448;51.660;5.824;2023-06-04T14:05:15;102032.22;;;27.09;27.55
61119;BME280;51448;51.660;5.824;2023-06-04T14:08:03;102018.22;;;27.15;27.60
61119;BME280;51448;51.660;5.824;2023-06-04T14:10:51;102019.47;;;27.22;27.68
61119;BME280;51448;51.660;5.824;2023-06-04T14:13:39;102018.28;;;27.26;27.88
61119;BME280;51448;51.660;5.824;2023-06-04T14:16:28;102015.47;;;27.28;28.20
61119;BME280;51448;51.660;5.824;2023-06-04T14:19:16;102020.38;;;27.34;27.60
61119;BME280;51448;51.660;5.824;2023-06-04T14:22:04;102020.13;;;27.26;26.81
61119;BME280;51448;51.660;5.824;2023-06-04T14:24:52;102015.03;;;27.21;27.23
61119;BME280;51448;51.660;5.824;2023-06-04T14:27:40;102009.56;;;27.23;26.78
61119;BME280;51448;51.660;5.824;2023-06-04T14:30:28;102007.69;;;27.23;27.41
61119;BME280;51448;51.660;5.824;2023-06-04T14:33:16;102012.25;;;27.34;27.71
61119;BME280;51448;51.660;5.824;2023-06-04T14:36:03;102009.53;;;27.45;27.77
61119;BME280;51448;51.660;5.824;2023-06-04T14:38:51;102004.75;;;27.49;27.65
61119;BME280;51448;51.660;5.824;2023-06-04T14:41:39;102012.00;;;27.48;26.88
61119;BME280;51448;51.660;5.824;2023-06-04T14:44:27;102007.44;;;27.49;27.41
61119;BME280;51448;51.660;5.824;2023-06-04T14:47:15;102013.19;;;27.56;27.92
61119;BME280;51448;51.660;5.824;2023-06-04T14:50:03;102011.34;;;27.56;27.37
61119;BME280;51448;51.660;5.824;2023-06-04T14:52:51;102004.75;;;27.49;27.86